Time;durP1;ratioP1;P1;durP2;ratioP2;P2;SDS_P1;SDS_P2;PMS_P1;PMS_P2;Temp;Humidity;BMP_temperature;BMP_pressure;BME280_temperature;BME280_humidity;BME280_pressure;Samples;Min_cycle;Max_cycle;Signal;HPM_P1;HPM_P2
2024/03/25 00:00:10;;;;;;;1.48;1.30;;;;;;;-145.63;100.00;61273.97;5125794;27;20029;-63
2024/03/25 00:02:40;;;;;;;1.40;1.30;;;;;;;-145.63;100.00;61273.97;5119281;27;20029;-64
2024/03/25 00:05:10;;;;;;;4.05;1.00;;;;;;;-145.63;100.00;61273.97;5120120;27;20047;-64
2024/03/25 00:07:37;;;;;;;1.00;1.00;;;;;;;-145.63;100.00;61273.97;5119030;27;20106;-64
2024/03/25 00:10:06;;;;;;;0.93;0.90;;;;;;;-145.63;100.00;61273.97;5119054;28;20067;-64
2024/03/25 00:12:32;;;;;;;0.82;0.82;;;;;;;-145.63;100.00;61273.97;5136286;27;20019;-64
2024/03/25 00:14:58;;;;;;;1.90;1.20;;;;;;;-145.63;100.00;61273.97;5125122;27;20030;-63
2024/03/25 00:17:23;;;;;;;0.70;0.70;;;;;;;-145.63;100.00;61273.97;5119772;27;20060;-63
2024/03/25 00:19:52;;;;;;;1.88;0.60;;;;;;;-145.63;100.00;61273.97;5123750;27;20035;-64
2024/03/25 00:22:19;;;;;;;1.40;0.68;;;;;;;-145.63;100.00;61273.97;5138414;27;20027;-64
2024/03/25 00:24:46;;;;;;;0.52;0.52;;;;;;;-145.63;100.00;61273.97;5119282;28;20151;-63
2024/03/25 00:27:15;;;;;;;2.70;0.52;;;;;;;-145.63;100.00;61273.97;5119471;27;20046;-64
2024/03/25 00:29:41;;;;;;;0.60;0.60;;;;;;;-145.63;100.00;61273.97;5118714;27;20062;-64
2024/03/25 00:35:40;;;;;;;0.65;0.50;;;;;;;-145.63;100.00;61273.97;5118966;28;20081;-65
2024/03/25 00:41:35;;;;;;;0.50;0.50;;;;;;;-145.63;100.00;61273.97;5118088;28;20040;-64
2024/03/25 00:44:00;;;;;;;0.50;0.50;;;;;;;-145.63;100.00;61273.97;5115645;28;20529;-64
2024/03/25 00:46:26;;;;;;;0.68;0.50;;;;;;;-145.63;100.00;61273.97;5116227;27;20134;-64
2024/03/25 00:48:52;;;;;;;1.25;0.60;;;;;;;-145.63;100.00;61273.97;5136033;27;20444;-65
2024/03/25 00:51:17;;;;;;;0.68;0.50;;;;;;;-145.63;100.00;61273.97;5100409;28;20030;-65
2024/03/25 00:53:43;;;;;;;0.60;0.60;;;;;;;-145.63;100.00;61273.97;5114347;27;20368;-64
2024/03/25 00:56:09;;;;;;;2.78;0.40;;;;;;;-145.63;100.00;61273.97;5109798;28;20115;-64
2024/03/25 00:58:34;;;;;;;2.85;0.60;;;;;;;-145.63;100.00;61273.97;5127428;27;20027;-64
2024/03/25 01:01:09;;;;;;;0.40;0.40;;;;;;;-145.63;100.00;61273.97;5115381;28;20035;-65
2024/03/25 01:03:47;;;;;;;0.50;0.50;;;;;;;-145.63;100.00;61273.97;5122011;27;20027;-63
2024/03/25 01:06:46;;;;;;;0.38;0.38;;;;;;;-145.63;100.00;61273.97;5115544;27;20425;-64
2024/03/25 01:09:18;;;;;;;0.40;0.40;;;;;;;-145.63;100.00;61273.97;5131656;27;20038;-64
2024/03/25 01:11:44;;;;;;;2.40;0.45;;;;;;;-145.63;100.00;61273.97;5122974;27;20032;-64
2024/03/25 01:14:09;;;;;;;0.50;0.50;;;;;;;-145.63;100.00;61273.97;5124285;27;20035;-66
2024/03/25 01:16:35;;;;;;;0.30;0.30;;;;;;;-145.63;100.00;61273.97;5114723;28;20480;-65
2024/03/25 01:19:01;;;;;;;0.65;0.50;;;;;;;-145.63;100.00;61273.97;5115309;27;20028;-64
2024/03/25 01:21:26;;;;;;;1.65;0.50;;;;;;;-145.63;100.00;61273.97;5114368;28;20039;-64
2024/03/25 01:23:52;;;;;;;0.30;0.30;;;;;;;-145.63;100.00;61273.97;5097582;28;20043;-64
2024/03/25 01:26:27;;;;;;;0.30;0.30;;;;;;;-145.63;100.00;61273.97;5079606;28;20035;-64
2024/03/25 01:28:52;;;;;;;0.68;0.68;;;;;;;-145.63;100.00;61273.97;5114515;28;20452;-64
2024/03/25 01:31:19;;;;;;;0.50;0.50;;;;;;;-145.63;100.00;61273.97;5114929;28;20030;-64
2024/03/25 01:33:45;;;;;;;0.35;0.35;;;;;;;-145.63;100.00;61273.97;5116272;27;20032;-64
2024/03/25 01:36:16;;;;;;;0.77;0.40;;;;;;;-145.63;100.00;61273.97;5129703;27;20390;-65
2024/03/25 01:38:42;;;;;;;0.40;0.40;;;;;;;-145.63;100.00;61273.97;5130666;27;20076;-65
2024/03/25 01:41:11;;;;;;;0.43;0.43;;;;;;;-145.63;100.00;61273.97;5121379;27;20080;-64
2024/03/25 01:43:38;;;;;;;0.43;0.32;;;;;;;-145.63;100.00;61273.97;5129416;27;20552;-63
2024/03/25 01:46:05;;;;;;;0.50;0.50;;;;;;;-145.63;100.00;61273.97;5114703;28;20028;-64
2024/03/25 01:48:31;;;;;;;0.40;0.40;;;;;;;-145.63;100.00;61273.97;5114114;28;20031;-65
2024/03/25 01:50:58;;;;;;;0.40;0.40;;;;;;;-145.63;100.00;61273.97;5114126;28;20095;-65
2024/03/25 01:53:26;;;;;;;0.30;0.30;;;;;;;-145.63;100.00;61273.97;5119290;27;20103;-65
2024/03/25 01:55:56;;;;;;;0.50;0.50;;;;;;;-145.63;100.00;61273.97;5113845;28;20028;-64
2024/03/25 01:58:22;;;;;;;0.85;0.57;;;;;;;-145.63;100.00;61273.97;5114007;28;20422;-64
2024/03/25 02:00:50;;;;;;;0.40;0.40;;;;;;;-145.63;100.00;61273.97;5134277;27;20497;-65
2024/03/25 02:03:16;;;;;;;0.75;0.50;;;;;;;-145.63;100.00;61273.97;5118676;27;20047;-66
2024/03/25 02:05:43;;;;;;;0.63;0.40;;;;;;;-145.63;100.00;61273.97;5113955;27;20027;-65
2024/03/25 02:08:10;;;;;;;0.60;0.40;;;;;;;-145.63;100.00;61273.97;5120712;27;20027;-63
2024/03/25 02:10:37;;;;;;;0.32;0.32;;;;;;;-145.63;100.00;61273.97;5131714;27;20035;-64
2024/03/25 02:13:03;;;;;;;0.57;0.40;;;;;;;-145.63;100.00;61273.97;5122722;27;20123;-63
2024/03/25 02:15:29;;;;;;;2.03;1.13;;;;;;;-145.63;100.00;61273.97;5097319;28;20024;-63
2024/03/25 02:17:55;;;;;;;0.80;0.40;;;;;;;-145.63;100.00;61273.97;5129530;27;20062;-62
2024/03/25 02:20:21;;;;;;;0.73;0.60;;;;;;;-145.63;100.00;61273.97;5125161;27;20129;-63
2024/03/25 02:22:46;;;;;;;0.47;0.47;;;;;;;-145.63;100.00;61273.97;5113375;28;20166;-64
2024/03/25 02:25:16;;;;;;;0.30;0.30;;;;;;;-145.63;100.00;61273.97;5114185;27;20031;-63
2024/03/25 02:27:41;;;;;;;0.60;0.60;;;;;;;-145.63;100.00;61273.97;5113371;28;20020;-63
2024/03/25 02:30:14;;;;;;;1.35;0.50;;;;;;;-145.63;100.00;61273.97;5127401;27;20166;-63
2024/03/25 02:32:40;;;;;;;0.57;0.57;;;;;;;-145.63;100.00;61273.97;5122948;27;20483;-63
2024/03/25 02:35:10;;;;;;;0.50;0.50;;;;;;;-145.63;100.00;61273.97;5114200;27;20038;-63
2024/03/25 02:37:37;;;;;;;0.98;0.50;;;;;;;-145.63;100.00;61273.97;5123916;27;20031;-64
2024/03/25 02:40:05;;;;;;;0.55;0.50;;;;;;;-145.63;100.00;61273.97;5133157;27;20425;-62
2024/03/25 02:42:32;;;;;;;0.65;0.60;;;;;;;-145.63;100.00;61273.97;5115644;27;20467;-63
2024/03/25 02:44:58;;;;;;;0.77;0.77;;;;;;;-145.63;100.00;61273.97;5123171;27;20034;-62
2024/03/25 02:47:25;;;;;;;0.75;0.60;;;;;;;-145.63;100.00;61273.97;5112972;28;20039;-63
2024/03/25 02:49:51;;;;;;;0.93;0.70;;;;;;;-145.63;100.00;61273.97;5116099;27;20076;-63
2024/03/25 02:52:18;;;;;;;0.63;0.40;;;;;;;-145.63;100.00;61273.97;5133730;27;20031;-63
2024/03/25 02:54:43;;;;;;;0.60;0.60;;;;;;;-145.63;100.00;61273.97;5113708;27;20032;-63
2024/03/25 02:57:28;;;;;;;0.50;0.50;;;;;;;-145.63;100.00;61273.97;5122980;27;20049;-62
2024/03/25 03:00:37;;;;;;;0.85;0.82;;;;;;;-145.63;100.00;61273.97;5120864;27;20135;-63
2024/03/25 03:03:09;;;;;;;0.40;0.40;;;;;;;-145.63;100.00;61273.97;5121096;27;20412;-64
2024/03/25 03:05:40;;;;;;;0.60;0.60;;;;;;;-145.63;100.00;61273.97;5123483;27;20066;-70
2024/03/25 03:08:06;;;;;;;2.38;0.63;;;;;;;-145.63;100.00;61273.97;5127820;27;20035;-62
2024/03/25 03:10:31;;;;;;;0.63;0.63;;;;;;;-145.63;100.00;61273.97;5112402;28;20032;-63
2024/03/25 03:12:57;;;;;;;0.50;0.50;;;;;;;-145.63;100.00;61273.97;5112359;28;20051;-64
2024/03/25 03:15:31;;;;;;;0.70;0.70;;;;;;;-145.63;100.00;61273.97;5113225;28;20557;-63
2024/03/25 03:17:57;;;;;;;0.80;0.60;;;;;;;-145.63;100.00;61273.97;5119949;27;20027;-62
2024/03/25 03:20:22;;;;;;;0.70;0.70;;;;;;;-145.63;100.00;61273.97;5112841;28;20085;-62
2024/03/25 03:22:48;;;;;;;0.68;0.68;;;;;;;-145.63;100.00;61273.97;5127076;27;20040;-62
2024/03/25 03:25:14;;;;;;;0.95;0.82;;;;;;;-145.63;100.00;61273.97;5113275;28;20055;-64
2024/03/25 03:27:39;;;;;;;1.33;0.70;;;;;;;-145.63;100.00;61273.97;5112597;27;20032;-65
2024/03/25 03:30:05;;;;;;;0.85;0.63;;;;;;;-145.63;100.00;61273.97;5131645;27;20030;-63
2024/03/25 03:32:31;;;;;;;0.75;0.75;;;;;;;-145.63;100.00;61273.97;5129043;27;20427;-64
2024/03/25 03:38:09;;;;;;;0.65;0.65;;;;;;;-145.63;100.00;61273.97;5127101;28;20119;-64
2024/03/25 03:40:37;;;;;;;3.53;0.80;;;;;;;-145.63;100.00;61273.97;5132867;28;20179;-63
2024/03/25 03:43:03;;;;;;;0.60;0.60;;;;;;;-145.63;100.00;61273.97;5132462;28;20118;-65
2024/03/25 03:45:33;;;;;;;1.13;1.00;;;;;;;-145.63;100.00;61273.97;5115644;28;20028;-63
2024/03/25 03:47:59;;;;;;;1.30;1.10;;;;;;;-145.63;100.00;61273.97;5113957;28;20464;-64
2024/03/25 03:50:25;;;;;;;0.73;0.70;;;;;;;-145.63;100.00;61273.97;5117973;28;20076;-63
2024/03/25 03:52:50;;;;;;;0.70;0.70;;;;;;;-145.63;100.00;61273.97;5129398;28;20089;-62
2024/03/25 03:55:16;;;;;;;0.70;0.70;;;;;;;-145.63;100.00;61273.97;5112602;28;20050;-63
2024/03/25 03:57:45;;;;;;;0.80;0.70;;;;;;;-145.63;100.00;61273.97;5120922;28;20039;-62
2024/03/25 04:00:14;;;;;;;1.75;0.60;;;;;;;-145.63;100.00;61273.97;5131772;28;20103;-64
2024/03/25 04:02:39;;;;;;;0.70;0.70;;;;;;;-145.63;100.00;61273.97;5131828;28;20031;-64
2024/03/25 04:05:05;;;;;;;0.70;0.70;;;;;;;-145.63;100.00;61273.97;5127914;28;20452;-63
2024/03/25 04:07:32;;;;;;;0.82;0.60;;;;;;;-145.63;100.00;61273.97;5112615;28;20106;-63
2024/03/25 04:09:59;;;;;;;2.05;0.57;;;;;;;-145.63;100.00;61273.97;5112523;28;20058;-64
2024/03/25 04:12:25;;;;;;;0.60;0.60;;;;;;;-145.63;100.00;61273.97;5127810;28;20115;-64
2024/03/25 04:14:54;;;;;;;0.90;0.80;;;;;;;-145.63;100.00;61273.97;5121312;28;20194;-62
2024/03/25 04:17:45;;;;;;;0.70;0.60;;;;;;;-145.63;100.00;61273.97;5114856;27;20122;-64
2024/03/25 04:20:41;;;;;;;0.93;0.80;;;;;;;-145.63;100.00;61273.97;5128659;27;20084;-63
2024/03/25 04:23:07;;;;;;;1.85;0.80;;;;;;;-145.63;100.00;61273.97;5117929;27;20122;-63
2024/03/25 04:25:34;;;;;;;0.75;0.60;;;;;;;-145.63;100.00;61273.97;5115743;28;20043;-64
2024/03/25 04:27:59;;;;;;;1.52;0.80;;;;;;;-145.63;100.00;61273.97;5121113;27;20463;-64
2024/03/25 04:30:25;;;;;;;0.70;0.70;;;;;;;-145.63;100.00;61273.97;5120086;27;20049;-64
2024/03/25 04:32:51;;;;;;;1.35;0.93;;;;;;;-145.63;100.00;61273.97;5119193;27;20027;-63
2024/03/25 04:35:23;;;;;;;1.40;1.02;;;;;;;-145.63;100.00;61273.97;5129899;27;20027;-63
2024/03/25 04:38:00;;;;;;;1.33;0.93;;;;;;;-145.63;100.00;61273.97;5118639;27;20036;-64
2024/03/25 04:40:47;;;;;;;1.60;1.00;;;;;;;-145.63;100.00;61273.97;5126490;27;20049;-63
2024/03/25 04:43:38;;;;;;;2.38;1.10;;;;;;;-145.63;100.00;61273.97;5121427;27;20039;-64
2024/03/25 04:46:04;;;;;;;1.45;0.90;;;;;;;-145.63;100.00;61273.97;5117211;27;20111;-63
2024/03/25 04:48:29;;;;;;;1.17;0.90;;;;;;;-145.63;100.00;61273.97;5115381;28;20023;-62
2024/03/25 04:50:55;;;;;;;2.15;1.08;;;;;;;-145.63;100.00;61273.97;5115223;28;20428;-63
2024/03/25 04:53:21;;;;;;;1.00;1.00;;;;;;;-145.63;100.00;61273.97;5118688;27;20210;-62
2024/03/25 04:55:46;;;;;;;2.08;1.30;;;;;;;-145.63;100.00;61273.97;5128309;27;20055;-62
2024/03/25 04:58:12;;;;;;;1.83;1.02;;;;;;;-145.63;100.00;61273.97;5097151;27;20059;-63
2024/03/25 05:00:37;;;;;;;1.08;1.02;;;;;;;-145.63;100.00;61273.97;5115629;27;20069;-62
2024/03/25 05:03:50;;;;;;;3.55;1.27;;;;;;;-145.63;100.00;61273.97;5109739;27;20051;-63
2024/03/25 05:09:17;;;;;;;1.05;0.90;;;;;;;-145.63;100.00;61273.97;5120790;27;20040;-62
2024/03/25 05:11:55;;;;;;;1.88;1.20;;;;;;;-145.63;100.00;61273.97;5114303;28;20476;-62
2024/03/25 05:14:57;;;;;;;3.92;1.00;;;;;;;-145.63;100.00;61273.97;5115098;27;20372;-62
2024/03/25 05:17:24;;;;;;;1.90;1.10;;;;;;;-145.63;100.00;61273.97;5115677;27;20023;-63
2024/03/25 05:19:50;;;;;;;2.60;1.25;;;;;;;-145.63;100.00;61273.97;5120681;27;20031;-63
2024/03/25 05:22:16;;;;;;;3.20;1.35;;;;;;;-145.63;100.00;61273.97;5121641;27;20076;-63
2024/03/25 05:25:09;;;;;;;1.70;1.40;;;;;;;-145.63;100.00;61273.97;5131451;27;20075;-62
2024/03/25 05:27:53;;;;;;;3.67;1.70;;;;;;;-145.63;100.00;61273.97;5135267;27;20070;-64
2024/03/25 05:30:18;;;;;;;2.40;1.85;;;;;;;-145.63;100.00;61273.97;5131496;27;20344;-64
2024/03/25 05:32:44;;;;;;;1.83;1.48;;;;;;;-145.63;100.00;61273.97;5125246;27;20027;-63
2024/03/25 05:35:10;;;;;;;3.42;1.70;;;;;;;-145.63;100.00;61273.97;5118951;27;20035;-63
2024/03/25 05:37:38;;;;;;;1.27;1.15;;;;;;;-145.63;100.00;61273.97;5125239;27;20443;-64
2024/03/25 05:40:04;;;;;;;1.88;1.10;;;;;;;-145.63;100.00;61273.97;5121670;27;20035;-63
2024/03/25 05:42:30;;;;;;;1.13;1.00;;;;;;;-145.63;100.00;61273.97;5129004;27;20027;-65
2024/03/25 05:44:55;;;;;;;1.52;1.05;;;;;;;-145.63;100.00;61273.97;5134464;27;20444;-63
2024/03/25 05:47:48;;;;;;;1.95;1.25;;;;;;;-145.63;100.00;61273.97;5109779;28;20036;-63
2024/03/25 05:50:33;;;;;;;1.40;0.90;;;;;;;-145.63;100.00;61273.97;5121269;27;20058;-64
2024/03/25 05:52:59;;;;;;;1.70;1.10;;;;;;;-145.63;100.00;61273.97;5129346;27;20476;-63
2024/03/25 05:55:43;;;;;;;1.90;1.10;;;;;;;-145.63;100.00;61273.97;5120611;27;20027;-64
2024/03/25 05:58:30;;;;;;;2.80;1.10;;;;;;;-145.63;100.00;61273.97;5117499;27;20072;-64
2024/03/25 06:01:01;;;;;;;5.22;1.48;;;;;;;-145.63;100.00;61273.97;5123658;27;20062;-64
2024/03/25 06:03:26;;;;;;;2.15;1.30;;;;;;;-145.63;100.00;61273.97;5131382;27;20019;-64
2024/03/25 06:05:52;;;;;;;3.63;1.40;;;;;;;-145.63;100.00;61273.97;5124374;27;20096;-64
2024/03/25 06:08:30;;;;;;;1.50;1.08;;;;;;;-145.63;100.00;61273.97;5113865;28;20039;-64
2024/03/25 06:11:01;;;;;;;2.70;1.38;;;;;;;-145.63;100.00;61273.97;5118172;27;20378;-64
2024/03/25 06:13:27;;;;;;;2.67;1.83;;;;;;;-145.63;100.00;61273.97;5113604;28;20110;-63
2024/03/25 06:15:52;;;;;;;2.03;1.50;;;;;;;-145.63;100.00;61273.97;5124527;27;20387;-63
2024/03/25 06:21:42;;;;;;;3.45;1.40;;;;;;;-145.63;100.00;61273.97;5127695;27;20106;-63
2024/03/25 06:24:08;;;;;;;2.67;1.23;;;;;;;-145.63;100.00;61273.97;5129709;27;20047;-65
2024/03/25 06:26:34;;;;;;;2.72;1.50;;;;;;;-145.63;100.00;61273.97;5125367;27;20039;-64
2024/03/25 06:29:00;;;;;;;4.13;1.65;;;;;;;-145.63;100.00;61273.97;5132818;27;20177;-64
2024/03/25 06:34:21;;;;;;;8.32;3.65;;;;;;;-145.63;100.00;61273.97;5113593;28;20024;-63
2024/03/25 06:36:48;;;;;;;5.30;2.55;;;;;;;-145.63;100.00;61273.97;5125870;27;20102;-63
2024/03/25 06:42:31;;;;;;;5.70;2.80;;;;;;;-145.63;100.00;61273.97;5113902;27;20031;-64
2024/03/25 06:45:17;;;;;;;2.88;1.70;;;;;;;-145.63;100.00;61273.97;5126470;27;20027;-63
2024/03/25 06:47:43;;;;;;;1.83;1.40;;;;;;;-145.63;100.00;61273.97;5124084;27;20039;-63
2024/03/25 06:50:08;;;;;;;4.18;2.25;;;;;;;-145.63;100.00;61273.97;5116812;27;20023;-65
2024/03/25 06:52:43;;;;;;;14.70;10.98;;;;;;;-145.63;100.00;61273.97;5132559;27;20387;-65
2024/03/25 06:55:12;;;;;;;3.13;2.30;;;;;;;-145.63;100.00;61273.97;5122412;27;20030;-64
2024/03/25 06:57:49;;;;;;;3.58;2.83;;;;;;;-145.63;100.00;61273.97;5130324;27;20106;-64
2024/03/25 07:00:48;;;;;;;4.68;3.50;;;;;;;-145.63;100.00;61273.97;5128148;27;20031;-64
2024/03/25 07:03:27;;;;;;;4.03;2.30;;;;;;;-145.63;100.00;61273.97;5118295;27;20036;-63
2024/03/25 07:06:17;;;;;;;4.43;2.35;;;;;;;-145.63;100.00;61273.97;5118504;27;20100;-63
2024/03/25 07:08:43;;;;;;;3.08;2.75;;;;;;;-145.63;100.00;61273.97;5112938;28;20112;-64
2024/03/25 07:11:08;;;;;;;4.32;2.00;;;;;;;-145.63;100.00;61273.97;5124475;27;20028;-63
2024/03/25 07:13:35;;;;;;;3.17;2.13;;;;;;;-145.63;100.00;61273.97;5128902;27;20026;-65
2024/03/25 07:16:01;;;;;;;4.70;2.60;;;;;;;-145.63;100.00;61273.97;5118579;27;20054;-64
2024/03/25 07:18:27;;;;;;;3.42;2.00;;;;;;;-145.63;100.00;61273.97;5126805;27;20043;-64
2024/03/25 07:20:52;;;;;;;2.60;1.75;;;;;;;-145.63;100.00;61273.97;5123999;27;20190;-64
2024/03/25 07:23:18;;;;;;;2.33;1.60;;;;;;;-145.63;100.00;61273.97;5133400;27;20059;-62
2024/03/25 07:25:44;;;;;;;3.42;1.65;;;;;;;-145.63;100.00;61273.97;5133041;27;20440;-62
2024/03/25 07:28:09;;;;;;;2.90;1.95;;;;;;;-145.63;100.00;61273.97;5112902;28;20441;-63
2024/03/25 07:30:35;;;;;;;3.05;1.45;;;;;;;-145.63;100.00;61273.97;5128434;28;20130;-63
2024/03/25 07:33:04;;;;;;;3.40;2.05;;;;;;;-145.63;100.00;61273.97;5122284;28;20101;-64
2024/03/25 07:35:48;;;;;;;3.92;1.95;;;;;;;-145.63;100.00;61273.97;5117352;28;20106;-64
2024/03/25 07:38:31;;;;;;;3.70;1.83;;;;;;;-145.63;100.00;61273.97;5131596;28;20123;-64
2024/03/25 07:41:04;;;;;;;2.88;1.80;;;;;;;-145.63;100.00;61273.97;5117355;28;20038;-65
2024/03/25 07:43:30;;;;;;;4.80;1.70;;;;;;;-145.63;100.00;61273.97;5131023;28;20063;-63
2024/03/25 07:45:55;;;;;;;3.17;1.80;;;;;;;-145.63;100.00;61273.97;5114012;28;20058;-63
2024/03/25 07:48:39;;;;;;;5.28;2.03;;;;;;;-145.63;100.00;61273.97;5125568;28;20451;-64
2024/03/25 07:51:05;;;;;;;2.90;1.77;;;;;;;-145.63;100.00;61273.97;5133150;27;20068;-62
2024/03/25 07:53:31;;;;;;;2.60;1.80;;;;;;;-145.63;100.00;61273.97;5129813;27;20383;-64
2024/03/25 07:55:56;;;;;;;4.60;1.92;;;;;;;-145.63;100.00;61273.97;5120023;27;20173;-63
2024/03/25 07:58:22;;;;;;;5.50;1.95;;;;;;;-145.63;100.00;61273.97;5131164;27;20438;-63
2024/03/25 08:00:47;;;;;;;9.65;3.22;;;;;;;-145.63;100.00;61273.97;5135661;27;20074;-63
2024/03/25 08:03:13;;;;;;;4.50;1.98;;;;;;;-145.63;100.00;61273.97;5131894;27;20031;-65
2024/03/25 08:05:38;;;;;;;3.40;1.75;;;;;;;-145.63;100.00;61273.97;5129758;27;20482;-64
2024/03/25 08:08:04;;;;;;;5.43;2.13;;;;;;;-145.63;100.00;61273.97;5131782;27;20083;-64
2024/03/25 08:10:30;;;;;;;2.88;2.00;;;;;;;-145.63;100.00;61273.97;5136336;27;20054;-65
2024/03/25 08:12:56;;;;;;;1.75;1.52;;;;;;;-145.63;100.00;61273.97;5136247;27;20062;-63
2024/03/25 08:15:21;;;;;;;2.88;1.67;;;;;;;-145.63;100.00;61273.97;5131398;27;20035;-65
2024/03/25 08:17:56;;;;;;;5.65;2.03;;;;;;;-145.63;100.00;61273.97;5127954;27;20063;-64
2024/03/25 08:20:49;;;;;;;3.20;2.00;;;;;;;-145.63;100.00;61273.97;5126463;27;20030;-65
2024/03/25 08:23:15;;;;;;;6.43;2.13;;;;;;;-145.63;100.00;61273.97;5115871;28;20054;-64
2024/03/25 08:25:40;;;;;;;5.20;2.03;;;;;;;-145.63;100.00;61273.97;5115832;28;20524;-64
2024/03/25 08:28:43;;;;;;;4.00;1.77;;;;;;;-145.63;100.00;61273.97;5130668;27;20385;-64
2024/03/25 08:34:05;;;;;;;5.05;1.98;;;;;;;-145.63;100.00;61273.97;5113372;28;20380;-63
2024/03/25 08:36:31;;;;;;;5.18;2.10;;;;;;;-145.63;100.00;61273.97;5128983;27;20031;-63
2024/03/25 08:38:56;;;;;;;3.63;2.10;;;;;;;-145.63;100.00;61273.97;5128218;27;20035;-64
2024/03/25 08:41:22;;;;;;;4.28;2.10;;;;;;;-145.63;100.00;61273.97;5113174;28;20035;-63
2024/03/25 08:43:47;;;;;;;4.13;2.28;;;;;;;-145.63;100.00;61273.97;5115455;28;20724;-64
2024/03/25 08:46:13;;;;;;;3.45;1.83;;;;;;;-145.63;100.00;61273.97;5135903;27;20041;-64
2024/03/25 08:48:39;;;;;;;3.85;1.80;;;;;;;-145.63;100.00;61273.97;5134912;27;20445;-63
2024/03/25 08:51:04;;;;;;;5.50;1.60;;;;;;;-145.63;100.00;61273.97;5125220;27;20101;-64
2024/03/25 08:53:30;;;;;;;2.67;1.70;;;;;;;-145.63;100.00;61273.97;5115891;27;20028;-63
2024/03/25 08:55:55;;;;;;;3.97;1.60;;;;;;;-145.63;100.00;61273.97;5118919;27;20428;-63
2024/03/25 08:58:21;;;;;;;3.17;2.08;;;;;;;-145.63;100.00;61273.97;5115322;28;20028;-64
2024/03/25 09:00:47;;;;;;;4.18;2.45;;;;;;;-145.63;100.00;61273.97;5131775;27;20436;-65
2024/03/25 09:03:13;;;;;;;5.13;2.55;;;;;;;-145.63;100.00;61273.97;5134754;27;20034;-65
2024/03/25 09:05:38;;;;;;;4.45;2.10;;;;;;;-145.63;100.00;61273.97;5127953;27;20019;-65
2024/03/25 09:08:05;;;;;;;6.70;2.33;;;;;;;-145.63;100.00;61273.97;5133884;27;20478;-63
2024/03/25 09:13:30;;;;;;;5.53;2.60;;;;;;;-145.63;100.00;61273.97;5115492;28;20028;-64
2024/03/25 09:16:08;;;;;;;5.13;2.63;;;;;;;-145.63;100.00;61273.97;5133081;27;20027;-64
2024/03/25 09:18:34;;;;;;;7.75;2.60;;;;;;;-145.63;100.00;61273.97;5122979;27;20046;-64
2024/03/25 09:21:00;;;;;;;5.93;2.55;;;;;;;-145.63;100.00;61273.97;5132736;27;20038;-64
2024/03/25 09:23:25;;;;;;;6.53;3.15;;;;;;;-145.63;100.00;61273.97;5130468;27;20072;-64
2024/03/25 09:25:52;;;;;;;5.93;2.40;;;;;;;-145.63;100.00;61273.97;5135296;27;20043;-64
2024/03/25 09:28:18;;;;;;;5.28;2.00;;;;;;;-145.63;100.00;61273.97;5115018;28;20426;-64
2024/03/25 09:30:44;;;;;;;5.35;2.30;;;;;;;-145.63;100.00;61273.97;5130820;27;20106;-63
2024/03/25 09:33:10;;;;;;;5.75;2.10;;;;;;;-145.63;100.00;61273.97;5123746;27;20024;-65
2024/03/25 09:35:36;;;;;;;3.67;2.10;;;;;;;-145.63;100.00;61273.97;5102258;28;20042;-64
2024/03/25 09:38:02;;;;;;;6.45;3.92;;;;;;;-145.63;100.00;61273.97;5127091;27;20027;-64
2024/03/25 09:40:29;;;;;;;4.32;2.53;;;;;;;-145.63;100.00;61273.97;5134802;27;20035;-64
2024/03/25 09:43:01;;;;;;;5.53;2.47;;;;;;;-145.63;100.00;61273.97;5133862;27;20031;-64
2024/03/25 09:45:36;;;;;;;4.10;2.28;;;;;;;-145.63;100.00;61273.97;5129768;27;20371;-62
2024/03/25 09:51:13;;;;;;;6.05;2.70;;;;;;;-145.63;100.00;61273.97;5120194;27;20035;-62
2024/03/25 09:53:39;;;;;;;6.75;2.70;;;;;;;-145.63;100.00;61273.97;5108335;28;20043;-63
2024/03/25 09:56:05;;;;;;;9.52;3.25;;;;;;;-145.63;100.00;61273.97;5131405;27;20027;-64
2024/03/25 09:58:31;;;;;;;6.07;2.45;;;;;;;-145.63;100.00;61273.97;5115811;27;20039;-63
2024/03/25 10:00:58;;;;;;;3.35;2.35;;;;;;;-145.63;100.00;61273.97;5117082;27;20036;-62
2024/03/25 10:03:23;;;;;;;6.47;3.42;;;;;;;-145.63;100.00;61273.97;5119046;27;20036;-62
2024/03/25 10:05:50;;;;;;;9.35;2.50;;;;;;;-145.63;100.00;61273.97;5121544;27;20115;-63
2024/03/25 10:08:20;;;;;;;4.78;2.13;;;;;;;-145.63;100.00;61273.97;5123981;27;20024;-65
2024/03/25 10:10:46;;;;;;;5.60;2.58;;;;;;;-145.63;100.00;61273.97;5116167;27;20032;-63
2024/03/25 10:13:12;;;;;;;4.57;2.50;;;;;;;-145.63;100.00;61273.97;5115035;28;20369;-62
2024/03/25 10:15:37;;;;;;;5.68;2.10;;;;;;;-145.63;100.00;61273.97;5108764;27;20023;-64
2024/03/25 10:18:03;;;;;;;7.45;2.63;;;;;;;-145.63;100.00;61273.97;5124901;27;20031;-64
2024/03/25 10:20:29;;;;;;;9.05;3.20;;;;;;;-145.63;100.00;61273.97;5118550;27;20110;-63
2024/03/25 10:22:54;;;;;;;3.97;2.25;;;;;;;-145.63;100.00;61273.97;5130111;27;20063;-62
2024/03/25 10:25:35;;;;;;;9.07;2.85;;;;;;;-145.63;100.00;61273.97;5122194;27;20059;-65
2024/03/25 10:28:11;;;;;;;4.97;2.45;;;;;;;-145.63;100.00;61273.97;5129188;27;20050;-62
2024/03/25 10:30:49;;;;;;;6.68;2.70;;;;;;;-145.63;100.00;61273.97;5118506;27;20027;-65
2024/03/25 10:33:15;;;;;;;4.25;2.05;;;;;;;-145.63;100.00;61273.97;5129131;27;20043;-64
2024/03/25 10:35:40;;;;;;;4.43;2.13;;;;;;;-145.63;100.00;61273.97;5127209;27;20031;-64
2024/03/25 10:38:12;;;;;;;4.70;2.30;;;;;;;-145.63;100.00;61273.97;5127783;27;20061;-65
2024/03/25 10:40:39;;;;;;;7.35;3.63;;;;;;;-145.63;100.00;61273.97;5118810;27;20077;-63
2024/03/25 10:43:08;;;;;;;6.80;2.65;;;;;;;-145.63;100.00;61273.97;5131040;27;20046;-63
2024/03/25 10:45:55;;;;;;;4.65;2.72;;;;;;;-145.63;100.00;61273.97;5107574;27;20035;-63
2024/03/25 10:48:40;;;;;;;4.72;2.17;;;;;;;-145.63;100.00;61273.97;5131312;27;20034;-63
2024/03/25 10:51:09;;;;;;;5.13;2.30;;;;;;;-145.63;100.00;61273.97;5129770;27;20023;-63
2024/03/25 10:53:36;;;;;;;7.18;2.40;;;;;;;-145.63;100.00;61273.97;5124958;27;20054;-64
2024/03/25 10:56:05;;;;;;;12.40;2.80;;;;;;;-145.63;100.00;61273.97;5143548;27;20057;-64
2024/03/25 10:58:31;;;;;;;5.68;2.80;;;;;;;-145.63;100.00;61273.97;5130571;27;20039;-64
2024/03/25 11:00:58;;;;;;;5.50;2.25;;;;;;;-145.63;100.00;61273.97;5132723;27;20038;-64
2024/03/25 11:03:25;;;;;;;6.22;2.20;;;;;;;-145.63;100.00;61273.97;5121502;27;20043;-65
2024/03/25 11:05:51;;;;;;;7.95;2.53;;;;;;;-145.63;100.00;61273.97;5113345;28;20035;-64
2024/03/25 11:08:17;;;;;;;5.07;2.60;;;;;;;-145.63;100.00;61273.97;5113203;28;20028;-64
2024/03/25 11:10:44;;;;;;;7.25;2.90;;;;;;;-145.63;100.00;61273.97;5112600;28;20031;-65
2024/03/25 11:13:11;;;;;;;7.88;2.80;;;;;;;-145.63;100.00;61273.97;5131509;27;20034;-65
2024/03/25 11:15:48;;;;;;;7.55;2.55;;;;;;;-145.63;100.00;61273.97;5118996;27;20071;-63
2024/03/25 11:18:23;;;;;;;6.82;2.72;;;;;;;-145.63;100.00;61273.97;5123502;27;20031;-63
2024/03/25 11:21:04;;;;;;;4.72;2.50;;;;;;;-145.63;100.00;61273.97;5126090;27;20040;-64
2024/03/25 11:23:41;;;;;;;6.18;2.17;;;;;;;-145.63;100.00;61273.97;5116427;27;20039;-64
2024/03/25 11:26:29;;;;;;;5.10;2.83;;;;;;;-145.63;100.00;61273.97;5129960;27;20088;-62
2024/03/25 11:28:54;;;;;;;7.68;2.30;;;;;;;-145.63;100.00;61273.97;5122658;27;20035;-62
2024/03/25 11:31:21;;;;;;;5.50;2.60;;;;;;;-145.63;100.00;61273.97;5131752;27;20484;-62
2024/03/25 11:33:47;;;;;;;5.80;2.47;;;;;;;-145.63;100.00;61273.97;5130890;28;20062;-63
2024/03/25 11:36:13;;;;;;;8.30;2.65;;;;;;;-145.63;100.00;61273.97;5122478;28;20034;-64
2024/03/25 11:38:41;;;;;;;7.72;2.90;;;;;;;-145.63;100.00;61273.97;5111988;28;20032;-63
2024/03/25 11:41:07;;;;;;;5.55;2.67;;;;;;;-145.63;100.00;61273.97;5112409;28;20050;-63
2024/03/25 11:43:34;;;;;;;7.60;3.25;;;;;;;-145.63;100.00;61273.97;5112238;28;20027;-63
2024/03/25 11:45:59;;;;;;;4.45;2.38;;;;;;;-145.63;100.00;61273.97;5127116;28;20467;-63
2024/03/25 11:48:26;;;;;;;5.95;3.05;;;;;;;-145.63;100.00;61273.97;5120921;28;20051;-64
2024/03/25 11:50:51;;;;;;;6.00;2.85;;;;;;;-145.63;100.00;61273.97;5119732;28;20032;-63